Time;durP1;ratioP1;P1;durP2;ratioP2;P2;SDS_P1;SDS_P2;PMS_P1;PMS_P2;Temp;Humidity;BMP_temperature;BMP_pressure;BME280_temperature;BME280_humidity;BME280_pressure;Samples;Min_cycle;Max_cycle;Signal;HPM_P1;HPM_P2
2023/07/16 00:02:25;;;;;;;1999.90;999.90;;;19.00;99.90;;;;;;5095073;28;20087;-76
2023/07/16 00:04:51;;;;;;;1999.90;999.90;;;18.90;99.90;;;;;;5094678;28;20054;-75
2023/07/16 00:07:17;;;;;;;1999.90;999.90;;;18.90;99.90;;;;;;5095324;28;20040;-76
2023/07/16 00:09:43;;;;;;;1999.90;999.90;;;18.90;99.90;;;;;;5096499;28;20025;-77
2023/07/16 00:12:09;;;;;;;1999.90;999.90;;;18.90;99.90;;;;;;5094320;28;20114;-76
2023/07/16 00:14:34;;;;;;;1999.90;999.90;;;18.90;99.90;;;;;;5094408;28;20067;-76
2023/07/16 00:17:00;;;;;;;1999.90;999.90;;;18.90;99.90;;;;;;5095894;28;20040;-76
2023/07/16 00:19:25;;;;;;;1999.90;999.90;;;19.00;99.90;;;;;;5094221;28;20086;-76
2023/07/16 00:21:51;;;;;;;1999.90;999.90;;;19.00;99.90;;;;;;5095957;28;20044;-76
2023/07/16 00:24:16;;;;;;;1999.90;999.90;;;19.00;99.90;;;;;;5094916;28;20021;-76
2023/07/16 00:26:42;;;;;;;1999.90;999.90;;;19.00;99.90;;;;;;5094935;28;20086;-76
2023/07/16 00:29:07;;;;;;;1999.90;999.90;;;19.00;99.90;;;;;;5096600;28;20029;-76
2023/07/16 00:31:33;;;;;;;1999.90;999.90;;;19.00;99.90;;;;;;5096431;28;20449;-75
2023/07/16 00:33:58;;;;;;;1999.90;999.90;;;19.00;99.90;;;;;;5094932;28;20368;-76
2023/07/16 00:36:24;;;;;;;1999.90;999.90;;;19.00;99.90;;;;;;5096875;28;20036;-76
2023/07/16 00:38:50;;;;;;;1999.90;999.90;;;18.90;99.90;;;;;;5096488;28;20029;-75
2023/07/16 00:41:16;;;;;;;1999.90;999.90;;;18.90;99.90;;;;;;5094369;28;20040;-76
2023/07/16 00:43:41;;;;;;;1999.90;999.90;;;18.80;99.90;;;;;;5095989;28;20024;-74
2023/07/16 00:46:08;;;;;;;1999.90;999.90;;;18.80;99.90;;;;;;5094653;28;20119;-76
2023/07/16 00:48:34;;;;;;;1999.90;999.90;;;18.80;99.90;;;;;;5095835;28;20465;-76
2023/07/16 00:51:01;;;;;;;1999.90;999.90;;;18.80;99.90;;;;;;5095555;28;20089;-76
2023/07/16 00:53:27;;;;;;;1999.90;999.90;;;18.90;99.90;;;;;;5095400;28;20044;-75
2023/07/16 00:55:53;;;;;;;1999.90;999.90;;;18.70;99.90;;;;;;5094293;28;20039;-75
2023/07/16 00:58:18;;;;;;;1999.90;999.90;;;18.90;99.90;;;;;;5095927;28;20196;-75
2023/07/16 01:00:44;;;;;;;1999.90;999.90;;;18.90;99.90;;;;;;5095610;28;20041;-76
2023/07/16 01:03:12;;;;;;;1999.90;999.90;;;18.80;99.90;;;;;;5093290;28;20029;-75
2023/07/16 01:06:05;;;;;;;1999.90;999.90;;;18.80;99.90;;;;;;5095507;28;20036;-76
2023/07/16 01:08:56;;;;;;;1999.90;999.90;;;18.70;99.90;;;;;;5095497;28;20524;-75
2023/07/16 01:11:23;;;;;;;1999.90;999.90;;;18.60;99.90;;;;;;5093625;27;20078;-76
2023/07/16 01:13:49;;;;;;;1999.90;999.90;;;18.50;99.90;;;;;;5095240;28;20060;-75
2023/07/16 01:16:22;;;;;;;1999.90;999.90;;;18.50;99.90;;;;;;5093373;28;20060;-76
2023/07/16 01:18:48;;;;;;;1999.90;999.90;;;18.50;99.90;;;;;;5094140;28;20420;-76
2023/07/16 01:21:14;;;;;;;1999.90;999.90;;;18.50;99.90;;;;;;5095236;28;20044;-76
2023/07/16 01:23:53;;;;;;;1999.90;999.90;;;18.30;99.90;;;;;;5094913;28;20485;-76
2023/07/16 01:26:40;;;;;;;1999.90;999.90;;;18.30;99.90;;;;;;5093392;28;20505;-76
2023/07/16 01:29:20;;;;;;;1999.90;999.90;;;18.20;99.90;;;;;;5095448;28;20103;-75
2023/07/16 01:31:49;;;;;;;1999.90;999.90;;;18.10;99.90;;;;;;5093193;28;20124;-76
2023/07/16 01:34:15;;;;;;;1999.90;999.90;;;18.10;99.90;;;;;;5092526;28;20025;-75
2023/07/16 01:36:42;;;;;;;1999.90;999.90;;;17.90;99.90;;;;;;5095179;28;20064;-77
2023/07/16 01:39:07;;;;;;;1999.90;999.90;;;17.90;99.90;;;;;;5095186;28;20529;-76
2023/07/16 01:41:33;;;;;;;1999.90;999.90;;;17.90;99.90;;;;;;5094820;28;20120;-76
2023/07/16 01:43:58;;;;;;;1999.90;999.90;;;17.90;99.90;;;;;;5093065;28;20025;-75
2023/07/16 01:46:25;;;;;;;1999.90;999.90;;;17.80;99.90;;;;;;5093244;28;20040;-75
2023/07/16 01:48:50;;;;;;;1999.90;999.90;;;17.80;99.90;;;;;;5094758;28;20032;-76
2023/07/16 01:51:16;;;;;;;1999.90;999.90;;;17.80;99.90;;;;;;5094434;28;20375;-76
2023/07/16 01:53:41;;;;;;;1999.90;999.90;;;17.70;99.90;;;;;;5094556;28;20055;-76
2023/07/16 01:56:07;;;;;;;1999.90;999.90;;;17.70;99.90;;;;;;5094892;28;20493;-76
2023/07/16 01:58:32;;;;;;;1999.90;999.90;;;17.60;99.90;;;;;;5093404;28;20444;-75
2023/07/16 02:00:58;;;;;;;1999.90;999.90;;;17.60;99.90;;;;;;5094163;28;20053;-76
2023/07/16 02:03:24;;;;;;;1999.90;999.90;;;17.50;99.90;;;;;;5093973;28;20040;-76
2023/07/16 02:05:49;;;;;;;1999.90;999.90;;;17.50;99.90;;;;;;5094484;28;20068;-76
2023/07/16 02:08:17;;;;;;;1999.90;999.90;;;17.60;99.90;;;;;;5094691;28;20084;-76
2023/07/16 02:10:43;;;;;;;1999.90;999.90;;;17.30;99.90;;;;;;5093232;28;20127;-76
2023/07/16 02:13:08;;;;;;;1999.90;999.90;;;17.40;99.90;;;;;;5094072;28;20543;-76
2023/07/16 02:15:34;;;;;;;1999.90;999.90;;;17.40;99.90;;;;;;5092137;28;20542;-75
2023/07/16 02:17:59;;;;;;;1999.90;999.90;;;17.40;99.90;;;;;;5093125;28;20063;-76
2023/07/16 02:20:25;;;;;;;1999.90;999.90;;;17.30;99.90;;;;;;5094391;28;20505;-75
2023/07/16 02:22:50;;;;;;;1999.90;999.90;;;17.30;99.90;;;;;;5094051;28;20394;-75
2023/07/16 02:25:16;;;;;;;1999.90;999.90;;;17.30;99.90;;;;;;5092959;28;20473;-76
2023/07/16 02:27:41;;;;;;;1999.90;999.90;;;17.30;99.90;;;;;;5094372;28;20409;-76
2023/07/16 02:30:07;;;;;;;1999.90;999.90;;;17.30;99.90;;;;;;5092985;28;20453;-75
2023/07/16 02:32:33;;;;;;;1999.90;999.90;;;17.30;99.90;;;;;;5092284;28;20589;-75
2023/07/16 02:34:59;;;;;;;1999.90;999.90;;;17.40;99.90;;;;;;5094384;28;20077;-76
2023/07/16 02:37:25;;;;;;;1999.90;999.90;;;17.30;99.90;;;;;;5094393;28;20082;-76
2023/07/16 02:39:50;;;;;;;1999.90;999.90;;;17.40;99.90;;;;;;5096843;28;20040;-76
2023/07/16 02:42:16;;;;;;;1999.90;999.90;;;17.40;99.90;;;;;;5097533;28;20029;-76
2023/07/16 02:44:44;;;;;;;1999.90;999.90;;;17.40;99.90;;;;;;5097582;28;20037;-76
2023/07/16 02:47:11;;;;;;;1999.90;999.90;;;17.40;99.90;;;;;;5096113;28;20064;-76
2023/07/16 02:49:36;;;;;;;1999.90;999.90;;;17.40;99.90;;;;;;5097514;28;20043;-76
2023/07/16 02:54:38;;;;;;;1999.90;999.90;;;17.40;99.90;;;;;;5095509;28;20052;-74
2023/07/16 02:57:05;;;;;;;1999.90;999.90;;;17.40;99.90;;;;;;5095910;28;20032;-74
2023/07/16 02:59:31;;;;;;;1999.90;999.90;;;17.50;99.90;;;;;;5097295;28;20406;-74
2023/07/16 03:01:56;;;;;;;1999.90;999.90;;;17.40;99.90;;;;;;5097078;28;20047;-74
2023/07/16 03:04:22;;;;;;;1999.90;999.90;;;17.30;99.90;;;;;;5095676;28;20028;-74
2023/07/16 03:06:47;;;;;;;1999.90;999.90;;;17.20;99.90;;;;;;5095788;28;20554;-74
2023/07/16 03:09:13;;;;;;;1999.90;999.90;;;17.20;99.90;;;;;;5097136;28;20037;-74
2023/07/16 03:11:38;;;;;;;1999.90;999.90;;;17.20;99.90;;;;;;5096893;28;20035;-74
2023/07/16 03:14:04;;;;;;;1999.90;999.90;;;17.10;99.90;;;;;;5096968;28;20033;-74
2023/07/16 03:16:29;;;;;;;1999.90;999.90;;;17.10;99.90;;;;;;5095631;28;20125;-74
2023/07/16 03:18:55;;;;;;;1999.90;999.90;;;17.10;99.90;;;;;;5097150;28;20063;-74
2023/07/16 03:21:20;;;;;;;1999.90;999.90;;;17.20;99.90;;;;;;5096794;28;20044;-73
2023/07/16 03:23:46;;;;;;;1999.90;999.90;;;17.20;99.90;;;;;;5096724;28;20109;-74
2023/07/16 03:26:11;;;;;;;1999.90;999.90;;;17.20;99.90;;;;;;5097124;28;20032;-74
2023/07/16 03:28:37;;;;;;;1999.90;999.90;;;17.20;99.90;;;;;;5096954;28;20497;-74
2023/07/16 03:31:03;;;;;;;1999.90;999.90;;;17.20;99.90;;;;;;5096767;28;20537;-74
2023/07/16 03:33:28;;;;;;;1999.90;999.90;;;17.20;99.90;;;;;;5096768;28;20147;-74
2023/07/16 03:35:54;;;;;;;1999.90;999.90;;;17.20;99.90;;;;;;5096757;28;20068;-74
2023/07/16 03:38:19;;;;;;;1999.90;999.90;;;17.20;99.90;;;;;;5096369;28;20036;-74
2023/07/16 03:40:49;;;;;;;1999.90;999.90;;;17.20;99.90;;;;;;5096594;28;20041;-75
2023/07/16 03:43:16;;;;;;;1999.90;999.90;;;17.20;99.90;;;;;;5094786;28;20028;-74
2023/07/16 03:45:42;;;;;;;1999.90;999.90;;;17.20;99.90;;;;;;5096792;28;20592;-74
2023/07/16 03:48:07;;;;;;;1999.90;999.90;;;17.20;99.90;;;;;;5096776;28;20039;-74
2023/07/16 03:50:34;;;;;;;1999.90;999.90;;;17.20;99.90;;;;;;5096330;28;20036;-74
2023/07/16 03:52:59;;;;;;;1999.90;999.90;;;17.20;99.90;;;;;;5095570;28;20039;-74
2023/07/16 03:55:25;;;;;;;1999.90;999.90;;;17.20;99.90;;;;;;5096419;28;20040;-74
2023/07/16 03:57:51;;;;;;;1999.90;999.90;;;17.20;99.90;;;;;;5096568;28;20028;-74
2023/07/16 04:00:17;;;;;;;1999.90;999.90;;;17.20;99.90;;;;;;5096421;28;20043;-74
2023/07/16 04:02:42;;;;;;;1999.90;999.90;;;17.20;99.90;;;;;;5095823;28;20111;-74
2023/07/16 04:05:08;;;;;;;1999.90;999.90;;;17.20;99.90;;;;;;5096228;28;20401;-74
2023/07/16 04:07:33;;;;;;;1999.90;999.90;;;17.20;99.90;;;;;;5096234;28;20062;-74
2023/07/16 04:09:59;;;;;;;1999.90;999.90;;;17.20;99.90;;;;;;5094748;28;20086;-74
2023/07/16 04:12:24;;;;;;;1999.90;999.90;;;17.20;99.90;;;;;;5095482;28;20070;-74
2023/07/16 04:14:56;;;;;;;1999.90;999.90;;;17.20;99.90;;;;;;5096447;28;20391;-74
2023/07/16 04:17:21;;;;;;;1999.90;999.90;;;17.20;99.90;;;;;;5095564;28;20036;-74
2023/07/16 04:19:47;;;;;;;1999.90;999.90;;;17.20;99.90;;;;;;5096145;28;20033;-74
2023/07/16 04:22:12;;;;;;;1999.90;999.90;;;17.30;99.90;;;;;;5094146;28;20040;-75
2023/07/16 04:24:38;;;;;;;1999.90;999.90;;;17.30;99.90;;;;;;5095931;28;20032;-74
2023/07/16 04:27:04;;;;;;;1999.90;999.90;;;17.30;99.90;;;;;;5096134;28;20418;-74
2023/07/16 04:29:29;;;;;;;1999.90;999.90;;;17.30;99.90;;;;;;5094449;28;20389;-74
2023/07/16 04:31:55;;;;;;;1999.90;999.90;;;17.20;99.90;;;;;;5095846;28;20032;-75
2023/07/16 04:34:20;;;;;;;1999.90;999.90;;;17.30;99.90;;;;;;5095429;28;20032;-75
2023/07/16 04:36:46;;;;;;;1999.90;999.90;;;17.40;99.90;;;;;;5094461;28;20033;-75
2023/07/16 04:39:11;;;;;;;1999.90;999.90;;;17.40;99.90;;;;;;5096046;28;20452;-74
2023/07/16 04:41:37;;;;;;;1999.90;999.90;;;17.40;99.90;;;;;;5095620;28;20536;-74
2023/07/16 04:44:03;;;;;;;1999.90;999.90;;;17.40;99.90;;;;;;5095604;28;20378;-74
2023/07/16 04:46:30;;;;;;;1999.90;999.90;;;17.40;99.90;;;;;;5094050;28;20086;-75
2023/07/16 04:48:55;;;;;;;1999.90;999.90;;;17.40;99.90;;;;;;5094388;28;20033;-74
2023/07/16 04:51:21;;;;;;;1999.90;999.90;;;17.50;99.90;;;;;;5095245;28;20298;-74
2023/07/16 04:53:46;;;;;;;1999.90;999.90;;;17.50;99.90;;;;;;5093663;28;20036;-74
2023/07/16 04:56:12;;;;;;;1999.90;999.90;;;17.50;99.90;;;;;;5095828;28;20424;-75
2023/07/16 04:58:38;;;;;;;1999.90;999.90;;;17.50;99.90;;;;;;5094089;28;20079;-74
2023/07/16 05:01:04;;;;;;;1999.90;999.90;;;17.60;99.90;;;;;;5092735;28;20087;-74
2023/07/16 05:03:29;;;;;;;1999.90;999.90;;;17.60;99.90;;;;;;5094977;28;20473;-75
2023/07/16 05:05:55;;;;;;;1999.90;999.90;;;17.60;99.90;;;;;;5094026;28;20097;-74
2023/07/16 05:08:20;;;;;;;1999.90;999.90;;;17.60;99.90;;;;;;5095346;28;20056;-74
2023/07/16 05:10:46;;;;;;;1999.90;999.90;;;17.60;99.90;;;;;;5095346;28;20044;-74
2023/07/16 05:13:11;;;;;;;1999.90;999.90;;;17.70;99.90;;;;;;5095037;28;20036;-74
2023/07/16 05:15:37;;;;;;;1999.90;999.90;;;17.70;99.90;;;;;;5095028;28;20612;-74
2023/07/16 05:18:03;;;;;;;1999.90;999.90;;;17.80;99.90;;;;;;5095048;28;20032;-74
2023/07/16 05:20:29;;;;;;;1999.90;999.90;;;17.80;99.90;;;;;;5095212;28;20040;-75
2023/07/16 05:22:54;;;;;;;1999.90;999.90;;;17.90;99.90;;;;;;5094789;28;20028;-75
2023/07/16 05:25:20;;;;;;;1999.90;999.90;;;17.90;99.90;;;;;;5093524;28;20482;-74
2023/07/16 05:27:45;;;;;;;1999.90;999.90;;;17.90;99.90;;;;;;5095028;28;20474;-75
2023/07/16 05:30:11;;;;;;;1999.90;999.90;;;18.00;99.90;;;;;;5093427;28;20133;-74
2023/07/16 05:32:36;;;;;;;1999.90;999.90;;;18.00;99.90;;;;;;5094444;28;20493;-74
2023/07/16 05:35:02;;;;;;;1999.90;999.90;;;18.10;99.90;;;;;;5094828;28;20043;-74
2023/07/16 05:37:28;;;;;;;1999.90;999.90;;;18.10;99.90;;;;;;5095000;28;20029;-75
2023/07/16 05:39:53;;;;;;;1999.90;999.90;;;18.20;99.90;;;;;;5093312;28;20060;-74
2023/07/16 05:42:19;;;;;;;1999.90;999.90;;;18.30;99.90;;;;;;5094287;28;20063;-74
2023/07/16 05:44:47;;;;;;;1999.90;999.90;;;18.40;99.90;;;;;;5094705;28;20094;-75
2023/07/16 05:47:13;;;;;;;1999.90;999.90;;;18.30;99.90;;;;;;5094839;28;20867;-75
2023/07/16 05:49:38;;;;;;;1999.90;999.90;;;18.40;99.90;;;;;;5094880;28;20094;-75
2023/07/16 05:52:04;;;;;;;1999.90;999.90;;;18.50;99.90;;;;;;5109909;27;20082;-75
2023/07/16 05:54:30;;;;;;;1999.90;999.90;;;18.40;99.90;;;;;;5094618;28;20047;-75
2023/07/16 05:56:56;;;;;;;1999.90;999.90;;;18.50;99.90;;;;;;5094694;28;20029;-75
2023/07/16 05:59:21;;;;;;;1999.90;999.90;;;18.50;99.90;;;;;;5094366;28;20360;-75
2023/07/16 06:01:47;;;;;;;1999.90;999.90;;;18.50;99.90;;;;;;5094440;28;20127;-75
2023/07/16 06:04:13;;;;;;;1999.90;999.90;;;18.50;99.90;;;;;;5094498;28;20033;-75
2023/07/16 06:06:38;;;;;;;1999.90;999.90;;;18.60;99.90;;;;;;5094574;28;20816;-75
2023/07/16 06:09:04;;;;;;;1999.90;999.90;;;18.70;99.90;;;;;;5093124;28;20116;-75
2023/07/16 06:11:29;;;;;;;1999.90;999.90;;;18.90;99.90;;;;;;5095726;28;20097;-75
2023/07/16 06:13:55;;;;;;;1999.90;999.90;;;19.20;99.90;;;;;;5097986;28;20037;-74
2023/07/16 06:16:21;;;;;;;1999.90;999.90;;;19.20;99.90;;;;;;5100165;28;20067;-75
2023/07/16 06:18:47;;;;;;;1999.90;999.90;;;19.20;99.90;;;;;;5100807;28;20032;-75
2023/07/16 06:21:12;;;;;;;1999.90;999.90;;;19.20;99.90;;;;;;5099446;28;20555;-75
2023/07/16 06:23:38;;;;;;;1999.90;999.90;;;19.20;99.90;;;;;;5099092;28;20444;-75
2023/07/16 06:26:04;;;;;;;1999.90;999.90;;;19.30;99.90;;;;;;5099509;28;20502;-75
2023/07/16 06:28:29;;;;;;;1999.90;999.90;;;19.30;99.90;;;;;;5098848;28;20029;-74
2023/07/16 06:30:55;;;;;;;1999.90;999.90;;;19.30;99.90;;;;;;5097479;28;20485;-74
2023/07/16 06:33:20;;;;;;;1999.90;999.90;;;19.30;99.90;;;;;;5098791;28;20043;-74
2023/07/16 06:35:47;;;;;;;1999.90;999.90;;;19.30;99.90;;;;;;5099059;28;20028;-74
2023/07/16 06:38:14;;;;;;;1999.90;999.90;;;19.40;99.90;;;;;;5097442;28;20112;-74
2023/07/16 06:40:40;;;;;;;1999.90;999.90;;;19.40;99.90;;;;;;5098707;28;20037;-74
2023/07/16 06:43:05;;;;;;;1999.90;999.90;;;19.40;99.90;;;;;;5113569;28;20036;-74
2023/07/16 06:45:31;;;;;;;1999.90;999.90;;;19.30;99.90;;;;;;5099043;28;20036;-75
2023/07/16 06:47:56;;;;;;;1999.90;999.90;;;19.40;99.90;;;;;;5100605;28;20032;-73
2023/07/16 06:50:22;;;;;;;1999.90;999.90;;;19.50;99.90;;;;;;5098764;28;20093;-75
2023/07/16 06:52:47;;;;;;;1999.90;999.90;;;19.60;99.90;;;;;;5097213;28;20492;-75
2023/07/16 06:55:13;;;;;;;1999.90;999.90;;;19.80;99.90;;;;;;5098049;28;20088;-75
2023/07/16 06:57:38;;;;;;;1999.90;999.90;;;19.90;99.90;;;;;;5097780;28;20028;-75
2023/07/16 07:00:05;;;;;;;1999.90;999.90;;;20.00;99.90;;;;;;5098158;28;20045;-75
2023/07/16 07:02:31;;;;;;;1999.90;999.90;;;20.00;99.90;;;;;;5097243;28;20040;-74
2023/07/16 07:04:58;;;;;;;1999.90;999.90;;;19.90;99.90;;;;;;5098295;28;20040;-75
2023/07/16 07:07:23;;;;;;;1999.90;999.90;;;19.90;99.90;;;;;;5098791;28;20025;-75
2023/07/16 07:09:49;;;;;;;1999.90;999.90;;;19.60;99.90;;;;;;5098799;28;20044;-72
2023/07/16 07:12:15;;;;;;;1999.90;999.90;;;19.30;99.90;;;;;;5099672;28;20055;-75
2023/07/16 07:14:40;;;;;;;1999.90;999.90;;;19.20;99.90;;;;;;5098086;28;20044;-74
2023/07/16 07:17:06;;;;;;;1999.90;999.90;;;19.20;99.90;;;;;;5098037;28;20032;-74
2023/07/16 07:19:32;;;;;;;1999.90;999.90;;;19.30;99.90;;;;;;5097797;28;20044;-74
2023/07/16 07:21:57;;;;;;;1999.90;999.90;;;19.30;99.90;;;;;;5098557;28;20040;-80
2023/07/16 07:24:23;;;;;;;1999.90;999.90;;;19.40;99.90;;;;;;5096209;28;20025;-75
2023/07/16 07:26:48;;;;;;;1999.90;999.90;;;19.40;99.90;;;;;;5098619;28;20494;-74
2023/07/16 07:29:14;;;;;;;1999.90;999.90;;;19.30;99.90;;;;;;5098109;28;20028;-76
2023/07/16 07:31:40;;;;;;;1999.90;999.90;;;19.30;99.90;;;;;;5097831;28;20040;-75
2023/07/16 07:34:05;;;;;;;1999.90;999.90;;;19.60;99.90;;;;;;5095603;28;20032;-74
2023/07/16 07:36:31;;;;;;;1999.90;999.90;;;19.80;99.90;;;;;;5096587;28;20077;-73
2023/07/16 07:38:56;;;;;;;1999.90;999.90;;;19.90;99.90;;;;;;5096451;28;20032;-73
2023/07/16 07:41:22;;;;;;;1999.90;999.90;;;20.10;99.90;;;;;;5096066;28;20037;-75
2023/07/16 07:43:48;;;;;;;1999.90;999.90;;;20.40;99.90;;;;;;5096649;28;20036;-74
2023/07/16 07:46:13;;;;;;;1999.90;999.90;;;20.60;99.90;;;;;;5096812;28;20039;-75
2023/07/16 07:48:39;;;;;;;1999.90;999.90;;;20.80;99.90;;;;;;5096575;28;20033;-75
2023/07/16 07:51:04;;;;;;;1999.90;999.90;;;21.10;99.90;;;;;;5096377;28;20114;-75
2023/07/16 07:53:30;;;;;;;1999.90;999.90;;;21.40;99.90;;;;;;5094597;28;20485;-75
2023/07/16 07:55:55;;;;;;;1999.90;999.90;;;21.70;99.90;;;;;;5096773;28;20109;-74
2023/07/16 07:58:21;;;;;;;1999.90;999.90;;;22.10;99.90;;;;;;5096860;28;20487;-73
2023/07/16 08:00:49;;;;;;;1999.90;999.90;;;22.60;99.90;;;;;;5094705;28;20490;-74
2023/07/16 08:03:15;;;;;;;1999.90;999.90;;;22.70;99.90;;;;;;5093712;28;20041;-72
2023/07/16 08:05:40;;;;;;;1999.90;999.90;;;23.00;99.90;;;;;;5096659;28;20437;-75
2023/07/16 08:08:06;;;;;;;1999.90;999.90;;;22.40;99.90;;;;;;5095122;28;20024;-73
2023/07/16 08:10:31;;;;;;;1999.90;999.90;;;21.90;99.90;;;;;;5097325;28;20032;-74
2023/07/16 08:12:57;;;;;;;1999.90;999.90;;;21.50;99.90;;;;;;5102398;28;20071;-72
2023/07/16 08:15:22;;;;;;;1999.90;999.90;;;21.70;99.90;;;;;;5096218;28;20482;-73
2023/07/16 08:17:48;;;;;;;1999.90;999.90;;;22.10;99.90;;;;;;5095991;28;20425;-73
2023/07/16 08:20:14;;;;;;;1999.90;999.90;;;22.20;99.90;;;;;;5095818;28;20410;-73
2023/07/16 08:22:40;;;;;;;1999.90;999.90;;;22.50;99.90;;;;;;5094222;28;20028;-73
2023/07/16 08:25:06;;;;;;;1999.90;999.90;;;22.60;99.90;;;;;;5095889;28;20391;-74
2023/07/16 08:27:32;;;;;;;1999.90;999.90;;;22.90;99.90;;;;;;5096072;28;20040;-74
2023/07/16 08:29:57;;;;;;;1999.90;999.90;;;23.10;99.90;;;;;;5095968;28;20413;-74
2023/07/16 08:32:23;;;;;;;1999.90;999.90;;;23.40;99.80;;;;;;5095574;28;20068;-73
2023/07/16 08:34:49;;;;;;;1999.90;999.90;;;23.30;99.70;;;;;;5095642;28;20443;-73
2023/07/16 08:37:15;;;;;;;1999.90;999.90;;;23.40;98.20;;;;;;5094507;28;20090;-72
2023/07/16 08:39:40;;;;;;;1999.90;999.90;;;23.30;98.50;;;;;;5095966;28;20800;-73
2023/07/16 08:42:09;;;;;;;1999.90;999.90;;;23.10;98.10;;;;;;5095168;28;20029;-73
2023/07/16 08:44:37;;;;;;;1999.90;999.90;;;23.20;99.20;;;;;;5095836;28;20024;-73
2023/07/16 08:47:03;;;;;;;1999.90;999.90;;;23.70;98.10;;;;;;5096258;28;20059;-74
2023/07/16 08:49:30;;;;;;;1999.90;999.90;;;24.30;96.10;;;;;;5095719;28;20063;-76
2023/07/16 08:51:56;;;;;;;1999.90;999.90;;;24.40;95.80;;;;;;5096282;28;20773;-75
2023/07/16 08:54:22;;;;;;;1999.90;999.90;;;24.20;94.20;;;;;;5094173;28;20041;-75
2023/07/16 08:56:48;;;;;;;1999.90;999.90;;;23.80;95.70;;;;;;5094362;28;20086;-75
2023/07/16 08:59:18;;;;;;;1999.90;999.90;;;23.30;95.70;;;;;;5095966;28;20033;-73
2023/07/16 09:01:44;;;;;;;1999.90;999.90;;;23.30;96.70;;;;;;5095869;28;20513;-74
2023/07/16 09:04:09;;;;;;;1999.90;999.90;;;23.50;96.60;;;;;;5094276;28;20048;-73
2023/07/16 09:06:35;;;;;;;1999.90;999.90;;;23.50;95.30;;;;;;5094554;28;20036;-74
2023/07/16 09:09:00;;;;;;;1999.90;999.90;;;23.40;95.00;;;;;;5094158;28;20039;-74
2023/07/16 09:11:27;;;;;;;1999.90;999.90;;;23.50;94.10;;;;;;5095457;28;20048;-73
2023/07/16 09:13:52;;;;;;;1999.90;999.90;;;24.30;93.50;;;;;;5095505;28;20024;-74
2023/07/16 09:16:19;;;;;;;1999.90;999.90;;;24.50;91.70;;;;;;5095541;28;20367;-74
2023/07/16 09:18:45;;;;;;;1999.90;999.90;;;24.20;94.40;;;;;;5095793;28;20040;-74
2023/07/16 09:21:10;;;;;;;1999.90;999.90;;;24.10;93.20;;;;;;5093935;28;20036;-75
2023/07/16 09:23:36;;;;;;;1999.90;999.90;;;24.30;93.90;;;;;;5093453;28;20029;-76
2023/07/16 09:26:05;;;;;;;1999.90;999.90;;;24.70;92.90;;;;;;5095395;28;20741;-75
2023/07/16 09:28:31;;;;;;;1999.90;999.90;;;24.90;91.90;;;;;;5095421;28;20091;-74
2023/07/16 09:31:04;;;;;;;1999.90;999.90;;;25.10;91.70;;;;;;5095377;28;20035;-76
2023/07/16 09:33:31;;;;;;;1999.90;999.90;;;25.00;90.50;;;;;;5095264;28;20028;-75
2023/07/16 09:35:56;;;;;;;1999.90;999.90;;;24.80;90.80;;;;;;5095555;28;20040;-76
2023/07/16 09:38:24;;;;;;;1999.90;999.90;;;24.70;91.50;;;;;;5093962;28;20028;-74
2023/07/16 09:40:49;;;;;;;1999.90;999.90;;;24.70;92.40;;;;;;5094985;28;20064;-73
2023/07/16 09:43:15;;;;;;;1999.90;999.90;;;24.40;90.90;;;;;;5093388;28;20071;-73
2023/07/16 09:45:42;;;;;;;1999.90;999.90;;;24.10;92.20;;;;;;5093459;28;20402;-73
2023/07/16 09:48:09;;;;;;;1999.90;999.90;;;24.10;91.50;;;;;;5092210;28;20059;-74
2023/07/16 09:50:35;;;;;;;1999.90;999.90;;;24.20;92.50;;;;;;5094432;28;20032;-74
2023/07/16 09:53:03;;;;;;;1999.90;999.90;;;24.50;91.70;;;;;;5093977;28;20032;-74
2023/07/16 09:55:31;;;;;;;1999.90;999.90;;;24.90;91.40;;;;;;5093500;28;20079;-73
2023/07/16 09:57:59;;;;;;;1999.90;999.90;;;24.90;88.90;;;;;;5093105;28;20502;-75
2023/07/16 10:00:26;;;;;;;1999.90;999.90;;;24.70;89.40;;;;;;5094590;28;20090;-72
2023/07/16 10:02:52;;;;;;;1999.90;999.90;;;24.50;90.00;;;;;;5094826;28;20025;-73
2023/07/16 10:05:24;;;;;;;1999.90;999.90;;;24.50;91.40;;;;;;5094790;28;20060;-75
2023/07/16 10:07:52;;;;;;;1999.90;999.90;;;24.60;91.70;;;;;;5095480;28;20040;-74
2023/07/16 10:10:18;;;;;;;1999.90;999.90;;;24.90;87.80;;;;;;5095029;28;20086;-76
2023/07/16 10:12:56;;;;;;;1999.90;999.90;;;25.10;88.50;;;;;;5094185;28;20068;-76
2023/07/16 10:15:27;;;;;;;1999.90;999.90;;;25.60;87.20;;;;;;5093432;28;20032;-74
2023/07/16 10:17:52;;;;;;;1999.90;999.90;;;25.70;83.90;;;;;;5094706;28;20029;-76
2023/07/16 10:20:36;;;;;;;1999.90;999.90;;;25.80;88.40;;;;;;5094667;28;20075;-74
2023/07/16 10:23:15;;;;;;;1999.90;999.90;;;25.90;86.70;;;;;;5093910;28;20056;-74
2023/07/16 10:26:00;;;;;;;1999.90;999.90;;;26.00;84.60;;;;;;5092432;28;20028;-75
2023/07/16 10:28:26;;;;;;;1999.90;999.90;;;26.10;84.00;;;;;;5094797;28;20086;-75
2023/07/16 10:30:52;;;;;;;1999.90;999.90;;;26.40;83.00;;;;;;5092974;28;20082;-78
2023/07/16 10:33:17;;;;;;;1999.90;999.90;;;26.50;82.40;;;;;;5094500;28;20036;-74
2023/07/16 10:35:45;;;;;;;1999.90;999.90;;;26.10;84.60;;;;;;5092947;28;20029;-74
2023/07/16 10:38:11;;;;;;;1999.90;999.90;;;25.60;85.70;;;;;;5094326;28;20102;-74
2023/07/16 10:40:44;;;;;;;1999.90;999.90;;;25.70;83.80;;;;;;5094357;28;20545;-75
2023/07/16 10:43:10;;;;;;;1999.90;999.90;;;25.80;85.20;;;;;;5093894;28;20036;-74
2023/07/16 10:45:36;;;;;;;1999.90;999.90;;;26.00;81.60;;;;;;5094410;28;20029;-74
2023/07/16 10:48:02;;;;;;;1999.90;999.90;;;26.50;87.50;;;;;;5094298;28;20024;-74
2023/07/16 10:50:27;;;;;;;1999.90;999.90;;;26.90;85.20;;;;;;5094009;28;20032;-75
2023/07/16 10:52:54;;;;;;;1999.90;999.90;;;27.30;81.90;;;;;;5093175;28;20032;-75
2023/07/16 10:55:20;;;;;;;1999.90;999.90;;;27.40;79.60;;;;;;5094353;28;20520;-74
2023/07/16 10:57:50;;;;;;;1999.90;999.90;;;27.70;78.00;;;;;;5092555;28;20060;-75
2023/07/16 11:00:16;;;;;;;1999.90;999.90;;;27.50;78.70;;;;;;5094206;28;20036;-74
2023/07/16 11:02:46;;;;;;;1999.90;999.90;;;27.20;77.90;;;;;;5097176;28;20021;-74
2023/07/16 11:05:12;;;;;;;1999.90;999.90;;;27.40;80.00;;;;;;5097394;28;20028;-74
2023/07/16 11:07:42;;;;;;;1999.90;999.90;;;27.80;79.30;;;;;;5095054;28;20025;-74
2023/07/16 11:10:08;;;;;;;1999.90;999.90;;;27.90;76.80;;;;;;5096252;28;20037;-73
2023/07/16 11:12:33;;;;;;;1999.90;999.90;;;27.50;75.30;;;;;;5093833;28;20111;-75
2023/07/16 11:14:59;;;;;;;1999.90;999.90;;;28.00;77.40;;;;;;5095461;28;20123;-75
2023/07/16 11:17:25;;;;;;;1999.90;999.90;;;27.90;72.40;;;;;;5097464;28;20072;-75
2023/07/16 11:19:52;;;;;;;1999.90;999.90;;;27.40;77.50;;;;;;5097407;28;20439;-73
2023/07/16 11:22:18;;;;;;;1999.90;999.90;;;27.30;75.90;;;;;;5096944;28;20379;-74
2023/07/16 11:24:43;;;;;;;1999.90;999.90;;;27.40;77.00;;;;;;5095593;28;20039;-73
2023/07/16 11:27:33;;;;;;;1999.90;999.90;;;27.30;75.70;;;;;;5095597;28;20131;-73
2023/07/16 11:30:00;;;;;;;1999.90;999.90;;;27.00;78.00;;;;;;5096496;28;20115;-73
2023/07/16 11:32:27;;;;;;;1999.90;999.90;;;26.60;78.50;;;;;;5096624;28;20036;-74
2023/07/16 11:34:56;;;;;;;1999.90;999.90;;;27.30;78.30;;;;;;5095247;28;20032;-74
2023/07/16 11:37:24;;;;;;;1999.90;999.90;;;27.10;79.80;;;;;;5097039;28;20033;-74
2023/07/16 11:39:50;;;;;;;1999.90;999.90;;;26.80;79.50;;;;;;5096835;28;20036;-73
2023/07/16 11:42:29;;;;;;;1999.90;999.90;;;26.80;80.00;;;;;;5096550;28;20033;-74
2023/07/16 11:44:55;;;;;;;1999.90;999.90;;;27.30;78.20;;;;;;5097221;28;20039;-73
2023/07/16 11:47:21;;;;;;;1999.90;999.90;;;26.90;76.80;;;;;;5097006;28;20040;-74
2023/07/16 11:49:47;;;;;;;1999.90;999.90;;;27.30;79.10;;;;;;5096877;28;20055;-73
2023/07/16 11:52:12;;;;;;;1999.90;999.90;;;27.40;80.70;;;;;;5096439;28;20547;-73
2023/07/16 11:54:38;;;;;;;1999.90;999.90;;;27.70;76.00;;;;;;5096651;28;20045;-74
2023/07/16 11:57:04;;;;;;;1999.90;999.90;;;27.80;76.30;;;;;;5096548;28;20441;-73
2023/07/16 11:59:29;;;;;;;1999.90;999.90;;;28.00;76.90;;;;;;5096642;28;20028;-73